createdAt,value
2022-09-10T00:01:39.882Z,100324.91
2022-09-10T00:03:41.721Z,100327.94
2022-09-10T00:05:44.888Z,100328.72
2022-09-10T00:07:46.466Z,100342.16
2022-09-10T00:09:48.028Z,100342.78
2022-09-10T00:11:49.850Z,100344.69
2022-09-10T00:13:51.443Z,100335.13
2022-09-10T00:15:54.547Z,100340.09
2022-09-10T00:17:56.116Z,100334.81
2022-09-10T00:19:57.786Z,100333.81
2022-09-10T00:21:59.298Z,100329.84
2022-09-10T00:24:02.323Z,100330.81
2022-09-10T00:26:10.895Z,100332.41
2022-09-10T00:28:12.523Z,100320.56
2022-09-10T00:30:14.112Z,100322.31
2022-09-10T00:32:17.161Z,100323.75
2022-09-10T00:34:18.682Z,100329.34
2022-09-10T00:36:22.918Z,100330.81
2022-09-10T00:38:24.903Z,100332.09
2022-09-10T00:40:26.464Z,100335.16
2022-09-10T00:42:27.947Z,100339.44
2022-09-10T00:44:56.472Z,100336.25
2022-09-10T00:46:58.037Z,100341.22
2022-09-10T00:49:02.924Z,100340.88
2022-09-10T00:51:05.890Z,100341.50
2022-09-10T00:53:12.350Z,100337.38
2022-09-10T00:55:14.741Z,100331.94
2022-09-10T00:57:20.123Z,100330.81
2022-09-10T00:59:25.148Z,100328.25
2022-09-10T01:01:26.627Z,100333.69
2022-09-10T01:03:29.279Z,100324.72
2022-09-10T01:05:32.854Z,100329.06
2022-09-10T01:07:34.932Z,100331.44
2022-09-10T01:09:39.452Z,100323.91
2022-09-10T01:11:54.567Z,100331.47
2022-09-10T01:14:12.303Z,100331.81
2022-09-10T01:16:21.730Z,100327.97
2022-09-10T01:18:33.254Z,100332.09
2022-09-10T01:20:51.107Z,100325.81
2022-09-10T01:23:34.375Z,100330.47
2022-09-10T01:25:43.145Z,100330.06
2022-09-10T01:27:49.758Z,100337.09
2022-09-10T01:29:55.294Z,100341.38
2022-09-10T01:32:04.367Z,100335.78
2022-09-10T01:34:13.426Z,100334.38
2022-09-10T01:36:21.164Z,100335.66
2022-09-10T01:38:27.175Z,100340.13
2022-09-10T01:40:29.163Z,100336.44
2022-09-10T01:42:31.593Z,100330.53
2022-09-10T01:44:45.676Z,100335.47
2022-09-10T01:46:58.864Z,100338.50
2022-09-10T01:49:11.585Z,100343.66
2022-09-10T01:51:23.613Z,100338.66
2022-09-10T01:53:44.257Z,100349.53
2022-09-10T01:55:52.109Z,100341.72
2022-09-10T01:57:59.732Z,100339.97
2022-09-10T02:00:07.809Z,100337.41
2022-09-10T02:02:17.399Z,100338.09
2022-09-10T02:04:21.378Z,100338.72
2022-09-10T02:06:26.084Z,100336.78
2022-09-10T02:08:31.429Z,100335.38
2022-09-10T02:10:32.996Z,100336.63
2022-09-10T02:12:35.372Z,100336.63
2022-09-10T02:14:36.923Z,100333.75
2022-09-10T02:16:45.987Z,100338.72
2022-09-10T02:18:47.811Z,100334.41
2022-09-10T02:20:52.075Z,100326.06
2022-09-10T02:22:58.364Z,100327.50
2022-09-10T02:24:59.894Z,100322.53
2022-09-10T02:27:01.472Z,100336.78
2022-09-10T02:29:03.166Z,100328.75
2022-09-10T02:31:04.793Z,100321.06
2022-09-10T02:33:09.667Z,100323.28
2022-09-10T02:35:11.214Z,100316.59
2022-09-10T02:37:12.708Z,100329.06
2022-09-10T02:39:14.389Z,100319.97
2022-09-10T02:41:18.650Z,100319.44
2022-09-10T02:43:20.092Z,100318.00
2022-09-10T02:45:21.618Z,100311.75
2022-09-10T02:47:23.117Z,100315.94
2022-09-10T02:49:25.933Z,100314.16
2022-09-10T02:51:27.415Z,100309.03
2022-09-10T02:53:28.899Z,100309.03
2022-09-10T02:55:30.548Z,100310.63
2022-09-10T02:57:32.102Z,100315.47
2022-09-10T02:59:33.738Z,100310.97
2022-09-10T03:01:35.313Z,100309.03
2022-09-10T03:03:37.213Z,100316.88
2022-09-10T03:05:40.518Z,100311.63
2022-09-10T03:07:42.281Z,100312.88
2022-09-10T03:09:43.824Z,100300.88
2022-09-10T03:11:45.432Z,100302.47
2022-09-10T03:13:47.037Z,100310.16
2022-09-10T03:15:48.517Z,100302.47
2022-09-10T03:17:49.926Z,100310.00
2022-09-10T03:19:51.588Z,100308.88
2022-09-10T03:21:54.466Z,100306.28
2022-09-10T03:23:57.069Z,100308.19
2022-09-10T03:25:58.798Z,100308.06
2022-09-10T03:28:00.325Z,100307.28
2022-09-10T03:30:01.958Z,100308.66
2022-09-10T03:32:03.498Z,100310.34
2022-09-10T03:34:05.345Z,100305.19
2022-09-10T03:36:07.359Z,100310.63
2022-09-10T03:38:10.246Z,100310.50
2022-09-10T03:40:11.780Z,100314.03
2022-09-10T03:42:13.249Z,100314.66
2022-09-10T03:44:15.014Z,100310.97
2022-09-10T03:46:16.512Z,100315.00
2022-09-10T03:48:19.455Z,100318.16
2022-09-10T03:50:21.026Z,100316.50
2022-09-10T03:52:22.472Z,100314.13
2022-09-10T03:54:25.318Z,100322.16
2022-09-10T03:56:27.677Z,100319.59
2022-09-10T03:58:29.210Z,100324.88
2022-09-10T04:00:30.705Z,100312.03
2022-09-10T04:02:32.173Z,100316.06
2022-09-10T04:04:33.753Z,100316.56
2022-09-10T04:06:35.376Z,100317.69
2022-09-10T04:08:36.878Z,100315.72
2022-09-10T04:10:39.896Z,100316.19
2022-09-10T04:12:41.350Z,100313.13
2022-09-10T04:14:42.841Z,100313.94
2022-09-10T04:16:44.412Z,100322.13
2022-09-10T04:18:46.111Z,100328.38
2022-09-10T04:20:47.635Z,100321.50
2022-09-10T04:22:49.589Z,100318.56
2022-09-10T04:24:51.091Z,100320.50
2022-09-10T04:26:53.879Z,100319.84
2022-09-10T04:28:55.632Z,100317.78
2022-09-10T04:30:57.106Z,100323.41
2022-09-10T04:32:58.565Z,100314.94
2022-09-10T04:35:00.079Z,100328.22
2022-09-10T04:37:01.563Z,100327.41
2022-09-10T04:39:03.112Z,100326.78
2022-09-10T04:41:04.682Z,100321.19
2022-09-10T04:43:07.513Z,100326.97
2022-09-10T04:45:09.701Z,100323.59
2022-09-10T04:47:11.356Z,100322.03
2022-09-10T04:49:14.872Z,100323.00
2022-09-10T04:51:17.561Z,100319.94
2022-09-10T04:53:20.194Z,100326.97
2022-09-10T04:55:21.737Z,100332.41
2022-09-10T04:57:23.733Z,100338.66
2022-09-10T04:59:26.736Z,100339.94
2022-09-10T05:01:28.306Z,100346.66
2022-09-10T05:03:29.895Z,100346.81
2022-09-10T05:05:31.729Z,100349.25
2022-09-10T05:07:33.210Z,100344.78
2022-09-10T05:09:34.645Z,100343.34
2022-09-10T05:11:36.182Z,100342.84
2022-09-10T05:13:37.666Z,100345.94
2022-09-10T05:15:40.564Z,100344.19
2022-09-10T05:17:42.048Z,100343.41
2022-09-10T05:19:43.734Z,100341.66
2022-09-10T05:21:45.226Z,100349.47
2022-09-10T05:23:47.194Z,100347.88
2022-09-10T05:25:48.723Z,100349.00
2022-09-10T05:27:50.620Z,100351.72
2022-09-10T05:29:52.193Z,100345.31
2022-09-10T05:31:55.108Z,100346.25
2022-09-10T05:33:56.751Z,100350.91
2022-09-10T05:36:00.785Z,100350.59
2022-09-10T05:38:02.254Z,100349.81
2022-09-10T05:40:04.917Z,100345.81
2022-09-10T05:42:06.554Z,100349.81
2022-09-10T05:44:08.042Z,100353.16
2022-09-10T05:46:09.524Z,100350.44
2022-09-10T05:48:12.534Z,100349.31
2022-09-10T05:50:14.189Z,100341.16
2022-09-10T05:52:15.991Z,100345.00
2022-09-10T05:54:20.320Z,100348.34
2022-09-10T05:56:21.802Z,100349.16
2022-09-10T05:58:23.332Z,100352.38
2022-09-10T06:00:24.883Z,100348.84
2022-09-10T06:02:26.627Z,100345.81
2022-09-10T06:04:29.539Z,100348.34
2022-09-10T06:06:31.293Z,100351.41
2022-09-10T06:08:32.977Z,100348.69
2022-09-10T06:10:34.751Z,100355.88
2022-09-10T06:12:37.667Z,100355.41
2022-09-10T06:14:39.103Z,100355.56
2022-09-10T06:16:40.812Z,100358.31
2022-09-10T06:18:42.695Z,100358.13
2022-09-10T06:20:46.437Z,100354.28
2022-09-10T06:22:47.889Z,100354.28
2022-09-10T06:24:50.691Z,100359.09
2022-09-10T06:26:52.189Z,100367.72
2022-09-10T06:28:53.663Z,100360.06
2022-09-10T06:30:55.487Z,100372.34
2022-09-10T06:32:56.958Z,100366.47
2022-09-10T06:34:58.446Z,100374.44
2022-09-10T06:37:01.272Z,100371.38
2022-09-10T06:39:02.821Z,100375.59
2022-09-10T06:41:06.170Z,100371.75
2022-09-10T06:43:07.746Z,100377.97
2022-09-10T06:45:09.929Z,100379.56
2022-09-10T06:47:50.938Z,100373.97
2022-09-10T06:49:33.015Z,100382.13
2022-09-10T06:51:34.484Z,100380.38
2022-09-10T06:53:37.596Z,100382.78
2022-09-10T06:55:39.350Z,100379.44
2022-09-10T06:57:40.846Z,100384.53
2022-09-10T06:59:42.515Z,100378.78
2022-09-10T07:01:44.346Z,100385.84
2022-09-10T07:03:46.813Z,100384.53
2022-09-10T07:05:48.719Z,100378.63
2022-09-10T07:07:50.214Z,100386.47
2022-09-10T07:09:53.090Z,100386.13
2022-09-10T07:11:54.611Z,100389.53
2022-09-10T07:13:56.152Z,100387.25
2022-09-10T07:15:58.236Z,100395.28
2022-09-10T07:18:00.194Z,100387.25
2022-09-10T07:20:02.146Z,100393.19
2022-09-10T07:22:04.009Z,100393.19
2022-09-10T07:24:05.785Z,100396.53
2022-09-10T07:26:11.096Z,100401.63
2022-09-10T07:28:14.633Z,100395.56
2022-09-10T07:30:20.098Z,100401.50
2022-09-10T07:32:21.640Z,100393.66
2022-09-10T07:34:23.214Z,100403.09
2022-09-10T07:36:25.304Z,100410.78
2022-09-10T07:38:26.937Z,100414.94
2022-09-10T07:40:28.386Z,100413.34
2022-09-10T07:42:31.576Z,100413.34
2022-09-10T07:44:33.173Z,100417.66
2022-09-10T07:46:34.724Z,100421.03
2022-09-10T07:48:36.271Z,100422.13
2022-09-10T07:50:37.793Z,100427.09
2022-09-10T07:52:39.307Z,100423.75
2022-09-10T07:54:40.831Z,100418.91
2022-09-10T07:56:42.380Z,100429.00
2022-09-10T07:58:45.241Z,100429.81
2022-09-10T08:00:46.717Z,100424.38
2022-09-10T08:02:48.360Z,100428.84
2022-09-10T08:04:49.846Z,100431.72
2022-09-10T08:06:51.361Z,100427.09
2022-09-10T08:08:52.962Z,100430.25
2022-09-10T08:10:54.467Z,100432.50
2022-09-10T08:12:56.007Z,100437.13
2022-09-10T08:14:59.048Z,100437.78
2022-09-10T08:17:00.725Z,100443.44
2022-09-10T08:19:02.304Z,100440.03
2022-09-10T08:21:04.836Z,100440.66
2022-09-10T08:23:06.929Z,100442.09
2022-09-10T08:25:08.709Z,100441.41
2022-09-10T08:27:10.294Z,100445.88
2022-09-10T08:29:11.779Z,100449.09
2022-09-10T08:31:14.801Z,100447.81
2022-09-10T08:33:16.375Z,100449.75
2022-09-10T08:35:18.101Z,100451.66
2022-09-10T08:37:19.554Z,100448.94
2022-09-10T08:39:21.275Z,100451.38
2022-09-10T08:41:32.338Z,100460.66
2022-09-10T08:43:40.580Z,100456.94
2022-09-10T08:45:50.463Z,100457.13
2022-09-10T08:47:58.624Z,100461.78
2022-09-10T08:50:06.127Z,100454.69
2022-09-10T08:52:16.631Z,100460.13
2022-09-10T08:54:23.856Z,100456.91
2022-09-10T08:56:26.940Z,100453.66
2022-09-10T08:58:38.512Z,100462.78
2022-09-10T09:00:42.686Z,100458.81
2022-09-10T09:02:54.090Z,100461.19
2022-09-10T09:05:00.768Z,100461.97
2022-09-10T09:07:09.560Z,100456.53
2022-09-10T09:09:15.623Z,100467.78
2022-09-10T09:11:25.959Z,100466.16
2022-09-10T09:13:59.012Z,100457.50
2022-09-10T09:16:12.853Z,100460.41
2022-09-10T09:18:23.343Z,100458.63
2022-09-10T09:20:41.406Z,100460.06
2022-09-10T09:22:50.754Z,100469.19
2022-09-10T09:24:56.386Z,100465.97
2022-09-10T09:27:04.784Z,100466.59
2022-09-10T09:29:12.675Z,100469.78
2022-09-10T09:31:16.658Z,100462.13
2022-09-10T09:33:21.403Z,100463.06
2022-09-10T09:35:32.535Z,100460.00
2022-09-10T09:37:41.976Z,100460.78
2022-09-10T09:39:50.570Z,100465.09
2022-09-10T09:42:01.097Z,100463.16
2022-09-10T09:44:11.849Z,100455.94
2022-09-10T09:46:15.332Z,100458.00
2022-09-10T09:48:18.555Z,100456.06
2022-09-10T09:50:20.417Z,100451.84
2022-09-10T09:52:25.200Z,100452.16
2022-09-10T09:55:12.709Z,100456.94
2022-09-10T09:56:53.669Z,100443.25
2022-09-10T09:58:55.194Z,100454.50
2022-09-10T10:01:10.840Z,100447.53
2022-09-10T10:03:17.892Z,100450.72
2022-09-10T10:05:23.965Z,100444.19
2022-09-10T10:07:29.491Z,100446.72
2022-09-10T10:09:33.148Z,100447.78
2022-09-10T10:11:52.248Z,100440.53
2022-09-10T10:14:10.605Z,100445.13
2022-09-10T10:16:17.704Z,100435.88
2022-09-10T10:18:30.062Z,100437.25
2022-09-10T10:20:38.878Z,100435.75
2022-09-10T10:22:42.872Z,100431.34
2022-09-10T10:24:46.142Z,100437.59
2022-09-10T10:26:48.066Z,100431.28
2022-09-10T10:28:52.399Z,100428.09
2022-09-10T10:30:55.932Z,100430.22
2022-09-10T10:32:59.030Z,100432.53
2022-09-10T10:35:25.264Z,100432.13
2022-09-10T10:37:37.291Z,100423.28
2022-09-10T10:39:59.071Z,100425.69
2022-09-10T10:42:09.304Z,100412.78
2022-09-10T10:44:42.754Z,100414.63
2022-09-10T10:46:53.022Z,100418.97
2022-09-10T10:49:04.540Z,100423.41
2022-09-10T10:51:15.316Z,100419.91
2022-09-10T10:53:29.955Z,100412.84
2022-09-10T10:55:39.834Z,100413.97
2022-09-10T10:57:54.641Z,100421.22
2022-09-10T11:00:02.578Z,100423.28
2022-09-10T11:02:15.154Z,100421.69
2022-09-10T11:04:27.944Z,100429.63
2022-09-10T11:06:35.037Z,100422.22
2022-09-10T11:08:41.281Z,100422.63
2022-09-10T11:10:49.126Z,100430.53
2022-09-10T11:13:00.244Z,100425.63
2022-09-10T11:15:14.692Z,100424.84
2022-09-10T11:17:21.455Z,100424.97
2022-09-10T11:19:29.635Z,100426.16
2022-09-10T11:21:37.244Z,100427.75
2022-09-10T11:23:45.315Z,100426.63
2022-09-10T11:25:55.251Z,100413.09
2022-09-10T11:28:01.467Z,100424.97
2022-09-10T11:30:06.433Z,100426.91
2022-09-10T11:32:18.571Z,100424.47
2022-09-10T11:34:28.069Z,100421.81
2022-09-10T11:36:34.833Z,100425.38
2022-09-10T11:38:47.363Z,100419.56
2022-09-10T11:40:59.081Z,100418.91
2022-09-10T11:43:05.609Z,100416.19
2022-09-10T11:45:18.705Z,100417.13
2022-09-10T11:47:26.703Z,100420.69
2022-09-10T11:49:36.392Z,100410.72
2022-09-10T11:51:39.886Z,100419.44
2022-09-10T11:53:41.743Z,100423.16
2022-09-10T11:56:05.713Z,100418.16
2022-09-10T11:58:17.389Z,100415.97
2022-09-10T12:00:20.165Z,100413.72
2022-09-10T12:02:43.894Z,100414.66
2022-09-10T12:04:55.809Z,100411.38
2022-09-10T12:07:11.129Z,100405.34
2022-09-10T12:09:17.933Z,100415.44
2022-09-10T12:11:28.050Z,100413.09
2022-09-10T12:13:30.209Z,100408.41
2022-09-10T12:15:31.735Z,100410.91
2022-09-10T12:17:37.612Z,100409.44
2022-09-10T12:19:44.873Z,100414.78
2022-09-10T12:21:50.790Z,100408.97
2022-09-10T12:23:52.393Z,100411.81
2022-09-10T12:25:59.323Z,100416.59
2022-09-10T12:28:04.521Z,100413.53
2022-09-10T12:30:39.364Z,100413.78
2022-09-10T12:32:40.927Z,100418.25
2022-09-10T12:34:42.489Z,100404.81
2022-09-10T12:37:21.696Z,100410.19
2022-09-10T12:39:24.920Z,100418.97
2022-09-10T12:41:55.793Z,100408.50
2022-09-10T12:43:59.521Z,100409.44
2022-09-10T12:46:04.576Z,100401.47
2022-09-10T12:48:11.978Z,100405.91
2022-09-10T12:50:31.011Z,100406.25
2022-09-10T12:52:44.866Z,100405.25
2022-09-10T12:54:55.100Z,100402.41
2022-09-10T12:57:23.733Z,100408.22
2022-09-10T13:00:02.141Z,100411.50
2022-09-10T13:02:18.722Z,100403.31
2022-09-10T13:04:27.412Z,100404.91
2022-09-10T13:06:38.640Z,100407.06
2022-09-10T13:08:43.603Z,100395.19
2022-09-10T13:10:48.371Z,100391.31
2022-09-10T13:12:54.050Z,100393.03
2022-09-10T13:14:57.660Z,100395.06
2022-09-10T13:16:59.258Z,100389.59
2022-09-10T13:19:49.352Z,100390.25
2022-09-10T13:21:52.713Z,100402.91
2022-09-10T13:23:55.244Z,100385.09
2022-09-10T13:26:48.056Z,100396.25
2022-09-10T13:29:04.041Z,100390.09
2022-09-10T13:31:13.271Z,100384.16
2022-09-10T13:33:21.330Z,100381.16
2022-09-10T13:36:04.344Z,100376.31
2022-09-10T13:38:29.183Z,100376.84
2022-09-10T13:40:51.380Z,100373.09
2022-09-10T13:43:10.570Z,100376.97
2022-09-10T13:45:21.781Z,100376.97
2022-09-10T13:47:31.777Z,100376.06
2022-09-10T13:49:42.466Z,100383.59
2022-09-10T13:51:50.742Z,100372.81
2022-09-10T13:53:53.571Z,100370.97
2022-09-10T13:55:58.450Z,100372.75
2022-09-10T13:58:08.134Z,100372.28
2022-09-10T14:00:20.453Z,100373.28
2022-09-10T14:02:41.496Z,100363.75
2022-09-10T14:04:45.187Z,100372.22
2022-09-10T14:06:46.889Z,100377.91
2022-09-10T14:08:52.860Z,100371.34
2022-09-10T14:10:59.272Z,100370.56
2022-09-10T14:13:01.420Z,100377.88
2022-09-10T14:15:14.215Z,100379.53
2022-09-10T14:17:22.800Z,100371.66
2022-09-10T14:19:30.666Z,100378.31
2022-09-10T14:21:33.055Z,100367.31
2022-09-10T14:23:35.084Z,100382.31
2022-09-10T14:25:38.950Z,100375.28
2022-09-10T14:27:41.249Z,100363.88
2022-09-10T14:29:42.992Z,100371.00
2022-09-10T14:31:44.507Z,100371.16
2022-09-10T14:33:46.200Z,100370.94
2022-09-10T14:35:49.531Z,100369.69
2022-09-10T14:37:51.085Z,100370.00
2022-09-10T14:39:52.755Z,100368.13
2022-09-10T14:42:22.664Z,100367.28
2022-09-10T14:44:28.278Z,100373.78
2022-09-10T14:46:48.467Z,100367.63
2022-09-10T14:49:03.361Z,100375.13
2022-09-10T14:51:18.078Z,100365.13
2022-09-10T14:53:19.563Z,100369.94
2022-09-10T14:55:21.727Z,100367.97
2022-09-10T14:57:23.416Z,100361.13
2022-09-10T14:59:29.465Z,100364.91
2022-09-10T15:01:31.252Z,100358.97
2022-09-10T15:03:37.581Z,100361.44
2022-09-10T15:05:39.322Z,100366.41
2022-09-10T15:07:42.262Z,100356.00
2022-09-10T15:09:43.987Z,100361.91
2022-09-10T15:11:51.505Z,100354.47
2022-09-10T15:13:53.985Z,100362.91
2022-09-10T15:15:55.612Z,100365.91
2022-09-10T15:17:57.094Z,100359.41
2022-09-10T15:19:58.991Z,100361.69
2022-09-10T15:22:00.514Z,100357.78
2022-09-10T15:24:03.892Z,100361.66
2022-09-10T15:26:06.917Z,100354.66
2022-09-10T15:28:08.454Z,100352.47
2022-09-10T15:30:10.540Z,100357.69
2022-09-10T15:32:12.106Z,100357.44
2022-09-10T15:34:13.642Z,100356.38
2022-09-10T15:36:15.203Z,100361.31
2022-09-10T15:38:17.703Z,100368.53
2022-09-10T15:40:20.711Z,100365.91
2022-09-10T15:42:22.272Z,100361.22
2022-09-10T15:44:25.173Z,100367.25
2022-09-10T15:46:26.944Z,100365.56
2022-09-10T15:48:30.292Z,100366.84
2022-09-10T15:50:32.204Z,100372.34
2022-09-10T15:52:33.894Z,100362.97
2022-09-10T15:54:35.514Z,100371.00
2022-09-10T15:56:39.499Z,100355.03
2022-09-10T15:58:42.001Z,100359.25
2022-09-10T16:00:43.808Z,100362.91
2022-09-10T16:02:52.802Z,100360.34
2022-09-10T16:04:54.521Z,100353.09
2022-09-10T16:06:56.046Z,100350.47
2022-09-10T16:08:59.942Z,100353.75
2022-09-10T16:11:07.116Z,100352.44
2022-09-10T16:13:10.058Z,100359.88
2022-09-10T16:15:11.636Z,100360.81
2022-09-10T16:17:13.331Z,100352.88
2022-09-10T16:19:14.976Z,100365.66
2022-09-10T16:21:18.860Z,100361.59
2022-09-10T16:23:20.555Z,100363.97
2022-09-10T16:25:22.086Z,100366.00
2022-09-10T16:27:24.042Z,100370.81
2022-09-10T16:29:27.204Z,100374.97
2022-09-10T16:31:30.763Z,100369.59
2022-09-10T16:33:32.347Z,100366.41
2022-09-10T16:35:34.682Z,100378.75
2022-09-10T16:37:36.222Z,100373.19
2022-09-10T16:39:37.776Z,100385.63
2022-09-10T16:41:41.189Z,100381.44
2022-09-10T16:43:42.812Z,100384.06
2022-09-10T16:45:50.737Z,100393.16
2022-09-10T16:47:53.541Z,100391.56
2022-09-10T16:49:55.042Z,100397.44
2022-09-10T16:51:56.898Z,100399.38
2022-09-10T16:54:00.483Z,100410.75
2022-09-10T16:56:04.781Z,100402.69
2022-09-10T16:58:06.294Z,100406.94
2022-09-10T17:00:08.862Z,100415.94
2022-09-10T17:02:11.759Z,100413.91
2022-09-10T17:04:18.529Z,100409.34
2022-09-10T17:06:22.438Z,100415.59
2022-09-10T17:08:24.213Z,100412.28
2022-09-10T17:10:25.748Z,100414.69
2022-09-10T17:12:27.414Z,100418.31
2022-09-10T17:14:28.927Z,100417.53
2022-09-10T17:16:32.537Z,100420.94
2022-09-10T17:18:35.524Z,100415.38
2022-09-10T17:20:37.471Z,100423.59
2022-09-10T17:22:39.293Z,100419.16
2022-09-10T17:24:40.849Z,100418.81
2022-09-10T17:26:42.529Z,100415.38
2022-09-10T17:28:44.109Z,100409.91
2022-09-10T17:30:45.664Z,100413.34
2022-09-10T17:32:47.384Z,100420.75
2022-09-10T17:34:50.363Z,100412.44
2022-09-10T17:36:52.403Z,100419.50
2022-09-10T17:40:58.917Z,100427.34
2022-09-10T17:43:00.428Z,100420.19
2022-09-10T17:45:01.958Z,100426.97
2022-09-10T17:47:03.672Z,100426.09
2022-09-10T17:49:06.009Z,100426.44
2022-09-10T17:51:12.815Z,100427.25
2022-09-10T17:53:15.136Z,100435.56
2022-09-10T17:55:17.022Z,100426.00
2022-09-10T17:57:18.587Z,100434.84
2022-09-10T17:59:20.206Z,100440.00
2022-09-10T18:01:23.858Z,100444.19
2022-09-10T18:03:25.501Z,100441.34
2022-09-10T18:05:27.132Z,100445.75
2022-09-10T18:07:30.085Z,100444.84
2022-09-10T18:09:31.753Z,100453.59
2022-09-10T18:11:38.124Z,100455.06
2022-09-10T18:13:41.414Z,100457.22
2022-09-10T18:15:43.043Z,100460.88
2022-09-10T18:17:44.652Z,100466.00
2022-09-10T18:19:46.158Z,100459.50
2022-09-10T18:21:48.433Z,100461.44
2022-09-10T18:23:52.677Z,100461.16
2022-09-10T18:25:54.179Z,100460.50
2022-09-10T18:27:56.075Z,100460.50
2022-09-10T18:29:57.838Z,100460.84
2022-09-10T18:31:59.888Z,100458.91
2022-09-10T18:34:02.262Z,100461.31
2022-09-10T18:36:11.145Z,100457.00
2022-09-10T18:38:12.662Z,100467.88
2022-09-10T18:40:15.939Z,100463.63
2022-09-10T18:42:17.767Z,100471.69
2022-09-10T18:44:21.909Z,100470.56
2022-09-10T18:46:24.641Z,100465.75
2022-09-10T18:48:26.356Z,100473.41
2022-09-10T18:50:28.014Z,100463.63
2022-09-10T18:52:29.606Z,100478.41
2022-09-10T18:54:31.101Z,100473.47
2022-09-10T18:56:34.443Z,100472.34
2022-09-10T18:58:35.937Z,100471.09
2022-09-10T19:00:37.489Z,100476.69
2022-09-10T19:02:39.248Z,100475.31
2022-09-10T19:05:00.385Z,100471.09
2022-09-10T19:07:02.996Z,100472.22
2022-09-10T19:09:07.486Z,100472.34
2022-09-10T19:11:08.994Z,100472.81
2022-09-10T19:13:12.065Z,100472.34
2022-09-10T19:15:13.770Z,100472.81
2022-09-10T19:17:15.395Z,100481.13
2022-09-10T19:19:18.883Z,100483.31
2022-09-10T19:21:21.430Z,100501.44
2022-09-10T19:23:23.670Z,100497.91
2022-09-10T19:25:25.201Z,100502.25
2022-09-10T19:27:26.842Z,100494.84
2022-09-10T19:29:29.788Z,100502.09
2022-09-10T19:31:33.756Z,100503.25
2022-09-10T19:33:35.566Z,100502.78
2022-09-10T19:35:37.095Z,100507.91
2022-09-10T19:37:38.804Z,100505.06
2022-09-10T19:39:40.498Z,100513.38
2022-09-10T19:41:43.730Z,100501.97
2022-09-10T19:43:46.934Z,100507.78
2022-09-10T19:45:54.576Z,100513.59
2022-09-10T19:47:56.143Z,100501.06
2022-09-10T19:49:57.663Z,100503.78
2022-09-10T19:51:59.547Z,100511.53
2022-09-10T19:54:01.437Z,100505.59
2022-09-10T19:56:04.764Z,100500.78
2022-09-10T19:58:06.778Z,100510.81
2022-09-10T20:00:17.194Z,100502.91
2022-09-10T20:02:32.909Z,100504.88
2022-09-10T20:04:35.202Z,100508.72
2022-09-10T20:06:37.384Z,100503.94
2022-09-10T20:08:42.000Z,100506.00
2022-09-10T20:10:49.453Z,100503.94
2022-09-10T20:12:50.959Z,100502.66
2022-09-10T20:14:52.587Z,100504.94
2022-09-10T20:16:54.193Z,100504.94
2022-09-10T20:18:57.086Z,100507.66
2022-09-10T20:21:08.611Z,100498.00
2022-09-10T20:23:10.194Z,100500.28
2022-09-10T20:25:11.828Z,100503.94
2022-09-10T20:27:21.081Z,100503.47
2022-09-10T20:29:22.733Z,100495.44
2022-09-10T20:31:26.156Z,100495.44
2022-09-10T20:33:27.819Z,100495.06
2022-09-10T20:35:30.887Z,100495.25
2022-09-10T20:37:32.456Z,100501.31
2022-09-10T20:39:34.134Z,100506.94
2022-09-10T20:41:35.701Z,100507.38
2022-09-10T20:43:37.672Z,100512.06
2022-09-10T20:45:42.570Z,100517.47
2022-09-10T20:47:44.204Z,100518.75
2022-09-10T20:49:45.719Z,100509.75
2022-09-10T20:51:48.664Z,100513.16
2022-09-10T20:53:50.220Z,100518.28
2022-09-10T20:55:51.904Z,100519.72
2022-09-10T20:57:53.492Z,100516.34
2022-09-10T20:59:55.035Z,100523.16
2022-09-10T21:01:56.897Z,100516.22
2022-09-10T21:04:00.373Z,100519.00
2022-09-10T21:06:02.003Z,100529.44
2022-09-10T21:08:05.624Z,100531.56
2022-09-10T21:10:08.050Z,100530.19
2022-09-10T21:12:09.603Z,100538.38
2022-09-10T21:14:11.784Z,100540.75
2022-09-10T21:16:15.256Z,100527.56
2022-09-10T21:18:17.141Z,100527.28
2022-09-10T21:20:18.755Z,100527.41
2022-09-10T21:22:20.316Z,100520.34
2022-09-10T21:24:23.189Z,100522.94
2022-09-10T21:26:26.463Z,100524.97
2022-09-10T21:28:28.006Z,100532.03
2022-09-10T21:30:29.508Z,100523.25
2022-09-10T21:32:31.042Z,100528.84
2022-09-10T21:34:32.760Z,100528.41
2022-09-10T21:36:36.008Z,100537.38
2022-09-10T21:38:38.262Z,100535.13
2022-09-10T21:40:41.217Z,100530.03
2022-09-10T21:42:43.959Z,100528.78
2022-09-10T21:44:45.485Z,100525.88
2022-09-10T21:46:48.260Z,100528.44
2022-09-10T21:48:50.160Z,100531.81
2022-09-10T21:50:57.456Z,100526.88
2022-09-10T21:52:59.036Z,100527.50
2022-09-10T21:55:00.514Z,100528.09
2022-09-10T21:57:03.749Z,100528.91
2022-09-10T21:59:05.374Z,100524.38
2022-09-10T22:01:11.242Z,100526.44
2022-09-10T22:03:12.737Z,100530.44
2022-09-10T22:05:14.524Z,100538.31
2022-09-10T22:07:16.077Z,100532.25
2022-09-10T22:09:17.579Z,100532.72
2022-09-10T22:11:20.868Z,100536.41
2022-09-10T22:13:23.898Z,100538.69
2022-09-10T22:15:25.488Z,100535.28
2022-09-10T22:17:27.190Z,100532.28
2022-09-10T22:19:28.882Z,100534.75
2022-09-10T22:21:30.481Z,100537.41
2022-09-10T22:23:34.127Z,100536.50
2022-09-10T22:25:35.600Z,100536.16
2022-09-10T22:27:37.117Z,100532.28
2022-09-10T22:29:40.072Z,100532.81
2022-09-10T22:31:41.607Z,100538.41
2022-09-10T22:33:45.400Z,100538.66
2022-09-10T22:35:46.946Z,100530.72
2022-09-10T22:37:48.439Z,100540.03
2022-09-10T22:39:49.968Z,100537.78
2022-09-10T22:41:51.595Z,100531.72
2022-09-10T22:43:53.273Z,100537.66
2022-09-10T22:45:56.123Z,100540.66
2022-09-10T22:47:57.697Z,100537.94
2022-09-10T22:49:59.227Z,100548.69
2022-09-10T22:52:00.823Z,100541.47
2022-09-10T22:54:03.703Z,100539.25
2022-09-10T22:56:05.629Z,100544.38
2022-09-10T22:58:07.140Z,100546.94
2022-09-10T23:00:09.733Z,100540.22
2022-09-10T23:02:12.632Z,100542.94
2022-09-10T23:04:14.582Z,100550.19
2022-09-10T23:06:18.040Z,100543.75
2022-09-10T23:08:19.517Z,100549.81
2022-09-10T23:10:20.986Z,100555.28
2022-09-10T23:12:22.500Z,100548.06
2022-09-10T23:14:23.989Z,100554.28
2022-09-10T23:16:27.076Z,100550.78
2022-09-10T23:18:29.954Z,100545.97
2022-09-10T23:20:32.516Z,100551.13
2022-09-10T23:22:34.059Z,100544.72
2022-09-10T23:24:35.585Z,100548.09
2022-09-10T23:26:37.104Z,100556.00
2022-09-10T23:28:39.291Z,100549.09
2022-09-10T23:30:40.892Z,100546.84
2022-09-10T23:32:42.373Z,100554.91
2022-09-10T23:34:45.236Z,100551.19
2022-09-10T23:36:48.191Z,100553.78
2022-09-10T23:38:50.141Z,100560.34
2022-09-10T23:40:51.719Z,100562.94
2022-09-10T23:42:53.240Z,100559.25
2022-09-10T23:44:54.739Z,100567.16
2022-09-10T23:46:56.329Z,100562.50